sensor_id;sensor_type;location;lat;lon;timestamp;P1;durP1;ratioP1;P2;durP2;ratioP2
48487;SDS011;34289;48.572;13.378;2022-07-29T00:00:46;14.68;;;6.03;;
48487;SDS011;34289;48.572;13.378;2022-07-29T00:03:12;6.00;;;5.40;;
48487;SDS011;34289;48.572;13.378;2022-07-29T00:05:38;7.70;;;5.47;;
48487;SDS011;34289;48.572;13.378;2022-07-29T00:08:05;7.20;;;5.55;;
48487;SDS011;34289;48.572;13.378;2022-07-29T00:10:31;5.75;;;5.10;;
48487;SDS011;34289;48.572;13.378;2022-07-29T00:13:07;5.43;;;4.60;;
48487;SDS011;34289;48.572;13.378;2022-07-29T00:15:33;5.47;;;4.97;;
48487;SDS011;34289;48.572;13.378;2022-07-29T00:17:59;6.68;;;5.18;;
48487;SDS011;34289;48.572;13.378;2022-07-29T00:20:25;6.18;;;4.68;;
48487;SDS011;34289;48.572;13.378;2022-07-29T00:22:51;6.55;;;5.13;;
48487;SDS011;34289;48.572;13.378;2022-07-29T00:25:18;8.88;;;5.18;;
48487;SDS011;34289;48.572;13.378;2022-07-29T00:27:44;6.88;;;5.32;;
48487;SDS011;34289;48.572;13.378;2022-07-29T00:30:11;7.70;;;5.88;;
48487;SDS011;34289;48.572;13.378;2022-07-29T00:32:37;6.10;;;5.47;;
48487;SDS011;34289;48.572;13.378;2022-07-29T00:35:03;6.72;;;5.55;;
48487;SDS011;34289;48.572;13.378;2022-07-29T00:37:48;7.15;;;5.65;;
48487;SDS011;34289;48.572;13.378;2022-07-29T00:40:14;7.97;;;5.65;;
48487;SDS011;34289;48.572;13.378;2022-07-29T00:45:09;6.40;;;5.70;;
48487;SDS011;34289;48.572;13.378;2022-07-29T00:47:35;6.65;;;5.53;;
48487;SDS011;34289;48.572;13.378;2022-07-29T00:50:01;5.85;;;5.25;;
48487;SDS011;34289;48.572;13.378;2022-07-29T00:52:28;8.65;;;6.40;;
48487;SDS011;34289;48.572;13.378;2022-07-29T00:54:54;7.05;;;5.97;;
48487;SDS011;34289;48.572;13.378;2022-07-29T00:57:21;8.80;;;6.60;;
48487;SDS011;34289;48.572;13.378;2022-07-29T00:59:47;8.18;;;5.68;;
48487;SDS011;34289;48.572;13.378;2022-07-29T01:02:13;9.13;;;6.05;;
48487;SDS011;34289;48.572;13.378;2022-07-29T01:04:39;7.85;;;6.05;;
48487;SDS011;34289;48.572;13.378;2022-07-29T01:07:05;5.88;;;5.32;;
48487;SDS011;34289;48.572;13.378;2022-07-29T01:09:32;8.55;;;6.00;;
48487;SDS011;34289;48.572;13.378;2022-07-29T01:11:59;9.57;;;6.15;;
48487;SDS011;34289;48.572;13.378;2022-07-29T01:14:25;14.55;;;5.57;;
48487;SDS011;34289;48.572;13.378;2022-07-29T01:16:54;6.30;;;5.57;;
48487;SDS011;34289;48.572;13.378;2022-07-29T01:19:33;16.10;;;5.35;;
48487;SDS011;34289;48.572;13.378;2022-07-29T01:22:17;6.65;;;5.55;;
48487;SDS011;34289;48.572;13.378;2022-07-29T01:25:02;7.35;;;5.70;;
48487;SDS011;34289;48.572;13.378;2022-07-29T01:27:41;7.05;;;5.43;;
48487;SDS011;34289;48.572;13.378;2022-07-29T01:30:16;8.07;;;5.78;;
48487;SDS011;34289;48.572;13.378;2022-07-29T01:32:43;12.98;;;6.38;;
48487;SDS011;34289;48.572;13.378;2022-07-29T01:37:40;10.82;;;6.15;;
48487;SDS011;34289;48.572;13.378;2022-07-29T01:40:40;8.02;;;6.47;;
48487;SDS011;34289;48.572;13.378;2022-07-29T01:43:16;9.82;;;6.85;;
48487;SDS011;34289;48.572;13.378;2022-07-29T01:45:46;13.05;;;6.80;;
48487;SDS011;34289;48.572;13.378;2022-07-29T01:48:18;9.73;;;6.18;;
48487;SDS011;34289;48.572;13.378;2022-07-29T01:50:53;15.18;;;6.82;;
48487;SDS011;34289;48.572;13.378;2022-07-29T01:53:31;9.77;;;6.35;;
48487;SDS011;34289;48.572;13.378;2022-07-29T01:55:58;8.05;;;6.47;;
48487;SDS011;34289;48.572;13.378;2022-07-29T01:58:25;10.05;;;6.57;;
48487;SDS011;34289;48.572;13.378;2022-07-29T02:00:52;14.10;;;7.53;;
48487;SDS011;34289;48.572;13.378;2022-07-29T02:03:21;12.07;;;6.82;;
48487;SDS011;34289;48.572;13.378;2022-07-29T02:05:47;13.20;;;7.45;;
48487;SDS011;34289;48.572;13.378;2022-07-29T02:08:15;11.02;;;7.07;;
48487;SDS011;34289;48.572;13.378;2022-07-29T02:10:42;9.65;;;6.85;;
48487;SDS011;34289;48.572;13.378;2022-07-29T02:13:09;10.63;;;6.50;;
48487;SDS011;34289;48.572;13.378;2022-07-29T02:15:36;7.55;;;6.72;;
48487;SDS011;34289;48.572;13.378;2022-07-29T02:18:18;6.90;;;6.07;;
48487;SDS011;34289;48.572;13.378;2022-07-29T02:20:46;9.55;;;7.38;;
48487;SDS011;34289;48.572;13.378;2022-07-29T02:23:12;9.80;;;7.25;;
48487;SDS011;34289;48.572;13.378;2022-07-29T02:25:40;8.00;;;6.82;;
48487;SDS011;34289;48.572;13.378;2022-07-29T02:28:07;10.73;;;7.07;;
48487;SDS011;34289;48.572;13.378;2022-07-29T02:30:34;8.27;;;6.47;;
48487;SDS011;34289;48.572;13.378;2022-07-29T02:33:01;8.10;;;6.45;;
48487;SDS011;34289;48.572;13.378;2022-07-29T02:35:27;9.63;;;6.93;;
48487;SDS011;34289;48.572;13.378;2022-07-29T02:37:54;13.85;;;7.13;;
48487;SDS011;34289;48.572;13.378;2022-07-29T02:40:38;7.97;;;6.90;;
48487;SDS011;34289;48.572;13.378;2022-07-29T02:43:05;9.75;;;7.22;;
48487;SDS011;34289;48.572;13.378;2022-07-29T02:45:32;9.32;;;6.40;;
48487;SDS011;34289;48.572;13.378;2022-07-29T02:47:59;14.27;;;6.57;;
48487;SDS011;34289;48.572;13.378;2022-07-29T02:50:33;9.98;;;6.45;;
48487;SDS011;34289;48.572;13.378;2022-07-29T02:53:05;11.10;;;6.93;;
48487;SDS011;34289;48.572;13.378;2022-07-29T02:55:40;7.63;;;6.60;;
48487;SDS011;34289;48.572;13.378;2022-07-29T02:58:09;8.10;;;7.15;;
48487;SDS011;34289;48.572;13.378;2022-07-29T03:00:47;7.55;;;6.55;;
48487;SDS011;34289;48.572;13.378;2022-07-29T03:03:17;11.38;;;6.45;;
48487;SDS011;34289;48.572;13.378;2022-07-29T03:05:43;9.52;;;6.90;;
48487;SDS011;34289;48.572;13.378;2022-07-29T03:08:10;10.18;;;8.30;;
48487;SDS011;34289;48.572;13.378;2022-07-29T03:10:38;8.73;;;7.90;;
48487;SDS011;34289;48.572;13.378;2022-07-29T03:13:07;9.52;;;7.55;;
48487;SDS011;34289;48.572;13.378;2022-07-29T03:15:35;11.25;;;7.78;;
48487;SDS011;34289;48.572;13.378;2022-07-29T03:18:01;9.10;;;7.68;;
48487;SDS011;34289;48.572;13.378;2022-07-29T03:20:27;15.98;;;7.95;;
48487;SDS011;34289;48.572;13.378;2022-07-29T03:22:53;9.35;;;7.85;;
48487;SDS011;34289;48.572;13.378;2022-07-29T03:25:19;9.18;;;7.90;;
48487;SDS011;34289;48.572;13.378;2022-07-29T03:27:46;10.38;;;8.10;;
48487;SDS011;34289;48.572;13.378;2022-07-29T03:30:13;9.57;;;7.45;;
48487;SDS011;34289;48.572;13.378;2022-07-29T03:32:39;9.20;;;7.55;;
48487;SDS011;34289;48.572;13.378;2022-07-29T03:35:06;8.35;;;7.32;;
48487;SDS011;34289;48.572;13.378;2022-07-29T03:37:32;10.75;;;7.22;;
48487;SDS011;34289;48.572;13.378;2022-07-29T03:39:58;8.32;;;7.05;;
48487;SDS011;34289;48.572;13.378;2022-07-29T03:42:28;8.48;;;7.25;;
48487;SDS011;34289;48.572;13.378;2022-07-29T03:44:58;7.82;;;6.55;;
48487;SDS011;34289;48.572;13.378;2022-07-29T03:47:27;7.40;;;6.63;;
48487;SDS011;34289;48.572;13.378;2022-07-29T03:49:59;8.48;;;7.03;;
48487;SDS011;34289;48.572;13.378;2022-07-29T03:52:30;8.95;;;8.05;;
48487;SDS011;34289;48.572;13.378;2022-07-29T03:54:56;8.93;;;8.02;;
48487;SDS011;34289;48.572;13.378;2022-07-29T03:57:23;13.18;;;8.10;;
48487;SDS011;34289;48.572;13.378;2022-07-29T03:59:53;10.95;;;8.30;;
48487;SDS011;34289;48.572;13.378;2022-07-29T04:02:19;8.52;;;7.72;;
48487;SDS011;34289;48.572;13.378;2022-07-29T04:04:46;8.77;;;7.50;;
48487;SDS011;34289;48.572;13.378;2022-07-29T04:07:13;9.30;;;8.27;;
48487;SDS011;34289;48.572;13.378;2022-07-29T04:09:39;13.48;;;8.38;;
48487;SDS011;34289;48.572;13.378;2022-07-29T04:12:05;9.93;;;8.10;;
48487;SDS011;34289;48.572;13.378;2022-07-29T04:14:32;10.77;;;7.68;;
48487;SDS011;34289;48.572;13.378;2022-07-29T04:16:59;8.18;;;7.05;;
48487;SDS011;34289;48.572;13.378;2022-07-29T04:19:25;9.52;;;7.97;;
48487;SDS011;34289;48.572;13.378;2022-07-29T04:21:51;8.98;;;8.18;;
48487;SDS011;34289;48.572;13.378;2022-07-29T04:24:17;9.25;;;7.97;;
48487;SDS011;34289;48.572;13.378;2022-07-29T04:26:45;9.05;;;7.70;;
48487;SDS011;34289;48.572;13.378;2022-07-29T04:29:11;8.90;;;7.90;;
48487;SDS011;34289;48.572;13.378;2022-07-29T04:31:39;8.68;;;7.88;;
48487;SDS011;34289;48.572;13.378;2022-07-29T04:34:05;8.23;;;7.43;;
48487;SDS011;34289;48.572;13.378;2022-07-29T04:36:31;9.20;;;8.32;;
48487;SDS011;34289;48.572;13.378;2022-07-29T04:38:57;9.52;;;7.22;;
48487;SDS011;34289;48.572;13.378;2022-07-29T04:41:23;8.75;;;7.95;;
48487;SDS011;34289;48.572;13.378;2022-07-29T04:43:49;10.77;;;8.80;;
48487;SDS011;34289;48.572;13.378;2022-07-29T04:46:15;13.18;;;8.40;;
48487;SDS011;34289;48.572;13.378;2022-07-29T04:48:41;9.05;;;7.57;;
48487;SDS011;34289;48.572;13.378;2022-07-29T04:51:07;9.25;;;8.35;;
48487;SDS011;34289;48.572;13.378;2022-07-29T04:53:33;11.68;;;8.27;;
48487;SDS011;34289;48.572;13.378;2022-07-29T04:55:59;12.50;;;8.35;;
48487;SDS011;34289;48.572;13.378;2022-07-29T04:58:26;15.45;;;7.88;;
48487;SDS011;34289;48.572;13.378;2022-07-29T05:00:55;10.48;;;9.35;;
48487;SDS011;34289;48.572;13.378;2022-07-29T05:03:21;17.75;;;8.95;;
48487;SDS011;34289;48.572;13.378;2022-07-29T05:05:47;10.57;;;8.55;;
48487;SDS011;34289;48.572;13.378;2022-07-29T05:08:13;14.48;;;8.15;;
48487;SDS011;34289;48.572;13.378;2022-07-29T05:10:39;10.13;;;7.97;;
48487;SDS011;34289;48.572;13.378;2022-07-29T05:13:06;10.10;;;8.05;;
48487;SDS011;34289;48.572;13.378;2022-07-29T05:15:33;13.30;;;8.98;;
48487;SDS011;34289;48.572;13.378;2022-07-29T05:17:59;10.95;;;8.73;;
48487;SDS011;34289;48.572;13.378;2022-07-29T05:20:25;9.50;;;8.55;;
48487;SDS011;34289;48.572;13.378;2022-07-29T05:22:54;13.30;;;9.75;;
48487;SDS011;34289;48.572;13.378;2022-07-29T05:25:28;9.55;;;8.15;;
48487;SDS011;34289;48.572;13.378;2022-07-29T05:27:55;9.95;;;8.88;;
48487;SDS011;34289;48.572;13.378;2022-07-29T05:30:21;10.93;;;8.32;;
48487;SDS011;34289;48.572;13.378;2022-07-29T05:32:47;9.18;;;8.32;;
48487;SDS011;34289;48.572;13.378;2022-07-29T05:35:13;8.48;;;7.68;;
48487;SDS011;34289;48.572;13.378;2022-07-29T05:37:40;9.13;;;8.32;;
48487;SDS011;34289;48.572;13.378;2022-07-29T05:40:06;9.10;;;8.20;;
48487;SDS011;34289;48.572;13.378;2022-07-29T05:42:32;9.88;;;7.53;;
48487;SDS011;34289;48.572;13.378;2022-07-29T05:44:58;13.35;;;9.70;;
48487;SDS011;34289;48.572;13.378;2022-07-29T05:47:28;10.32;;;9.38;;
48487;SDS011;34289;48.572;13.378;2022-07-29T05:49:54;12.18;;;8.63;;
48487;SDS011;34289;48.572;13.378;2022-07-29T05:52:20;10.38;;;9.23;;
48487;SDS011;34289;48.572;13.378;2022-07-29T05:54:46;13.55;;;10.15;;
48487;SDS011;34289;48.572;13.378;2022-07-29T05:57:16;10.40;;;9.40;;
48487;SDS011;34289;48.572;13.378;2022-07-29T05:59:46;12.43;;;10.50;;
48487;SDS011;34289;48.572;13.378;2022-07-29T06:02:12;13.38;;;9.60;;
48487;SDS011;34289;48.572;13.378;2022-07-29T06:04:38;11.32;;;10.13;;
48487;SDS011;34289;48.572;13.378;2022-07-29T06:07:04;12.38;;;10.20;;
48487;SDS011;34289;48.572;13.378;2022-07-29T06:09:31;11.30;;;9.13;;
48487;SDS011;34289;48.572;13.378;2022-07-29T06:11:57;9.75;;;8.75;;
48487;SDS011;34289;48.572;13.378;2022-07-29T06:14:23;12.90;;;9.82;;
48487;SDS011;34289;48.572;13.378;2022-07-29T06:16:49;13.20;;;9.35;;
48487;SDS011;34289;48.572;13.378;2022-07-29T06:19:15;15.07;;;10.65;;
48487;SDS011;34289;48.572;13.378;2022-07-29T06:21:45;15.10;;;10.40;;
48487;SDS011;34289;48.572;13.378;2022-07-29T06:24:11;16.70;;;9.60;;
48487;SDS011;34289;48.572;13.378;2022-07-29T06:26:38;11.02;;;9.38;;
48487;SDS011;34289;48.572;13.378;2022-07-29T06:29:04;11.05;;;9.65;;
48487;SDS011;34289;48.572;13.378;2022-07-29T06:31:30;10.23;;;8.93;;
48487;SDS011;34289;48.572;13.378;2022-07-29T06:33:56;11.75;;;10.55;;
48487;SDS011;34289;48.572;13.378;2022-07-29T06:36:22;10.98;;;8.88;;
48487;SDS011;34289;48.572;13.378;2022-07-29T06:38:48;11.20;;;9.80;;
48487;SDS011;34289;48.572;13.378;2022-07-29T06:41:14;12.95;;;9.30;;
48487;SDS011;34289;48.572;13.378;2022-07-29T06:43:41;11.90;;;8.75;;
48487;SDS011;34289;48.572;13.378;2022-07-29T06:46:09;15.15;;;9.65;;
48487;SDS011;34289;48.572;13.378;2022-07-29T06:48:36;11.43;;;9.35;;
48487;SDS011;34289;48.572;13.378;2022-07-29T06:51:02;11.80;;;9.60;;
48487;SDS011;34289;48.572;13.378;2022-07-29T06:53:29;11.00;;;8.98;;
48487;SDS011;34289;48.572;13.378;2022-07-29T06:55:55;11.30;;;10.20;;
48487;SDS011;34289;48.572;13.378;2022-07-29T06:58:23;10.80;;;9.38;;
48487;SDS011;34289;48.572;13.378;2022-07-29T07:00:49;10.70;;;9.00;;
48487;SDS011;34289;48.572;13.378;2022-07-29T07:03:15;9.98;;;8.80;;
48487;SDS011;34289;48.572;13.378;2022-07-29T07:05:42;9.95;;;8.32;;
48487;SDS011;34289;48.572;13.378;2022-07-29T07:08:08;10.65;;;8.10;;
48487;SDS011;34289;48.572;13.378;2022-07-29T07:10:34;9.70;;;8.65;;
48487;SDS011;34289;48.572;13.378;2022-07-29T07:13:00;9.45;;;8.55;;
48487;SDS011;34289;48.572;13.378;2022-07-29T07:15:27;13.43;;;8.82;;
48487;SDS011;34289;48.572;13.378;2022-07-29T07:17:53;11.73;;;8.90;;
48487;SDS011;34289;48.572;13.378;2022-07-29T07:20:19;13.70;;;9.68;;
48487;SDS011;34289;48.572;13.378;2022-07-29T07:22:45;10.70;;;7.53;;
48487;SDS011;34289;48.572;13.378;2022-07-29T07:25:11;8.02;;;6.82;;
48487;SDS011;34289;48.572;13.378;2022-07-29T07:27:38;7.63;;;6.85;;
48487;SDS011;34289;48.572;13.378;2022-07-29T07:30:04;12.00;;;6.90;;
48487;SDS011;34289;48.572;13.378;2022-07-29T07:32:31;8.00;;;6.05;;
48487;SDS011;34289;48.572;13.378;2022-07-29T07:34:57;8.18;;;6.50;;
48487;SDS011;34289;48.572;13.378;2022-07-29T07:37:24;11.63;;;6.50;;
48487;SDS011;34289;48.572;13.378;2022-07-29T07:39:50;10.13;;;7.38;;
48487;SDS011;34289;48.572;13.378;2022-07-29T07:42:17;9.43;;;8.52;;
48487;SDS011;34289;48.572;13.378;2022-07-29T07:44:43;10.02;;;7.95;;
48487;SDS011;34289;48.572;13.378;2022-07-29T07:47:10;7.88;;;5.45;;
48487;SDS011;34289;48.572;13.378;2022-07-29T07:49:36;6.90;;;6.20;;
48487;SDS011;34289;48.572;13.378;2022-07-29T07:52:02;13.27;;;6.25;;
48487;SDS011;34289;48.572;13.378;2022-07-29T07:54:29;7.20;;;5.85;;
48487;SDS011;34289;48.572;13.378;2022-07-29T07:56:55;6.57;;;5.97;;
48487;SDS011;34289;48.572;13.378;2022-07-29T07:59:21;10.38;;;5.80;;
48487;SDS011;34289;48.572;13.378;2022-07-29T08:01:47;6.22;;;5.63;;
48487;SDS011;34289;48.572;13.378;2022-07-29T08:04:14;7.22;;;5.18;;
48487;SDS011;34289;48.572;13.378;2022-07-29T08:06:40;7.95;;;6.00;;
48487;SDS011;34289;48.572;13.378;2022-07-29T08:09:06;7.28;;;6.50;;
48487;SDS011;34289;48.572;13.378;2022-07-29T08:11:32;10.68;;;6.68;;
48487;SDS011;34289;48.572;13.378;2022-07-29T08:13:58;10.98;;;6.50;;
48487;SDS011;34289;48.572;13.378;2022-07-29T08:16:26;12.63;;;11.35;;
48487;SDS011;34289;48.572;13.378;2022-07-29T08:18:52;10.13;;;8.18;;
48487;SDS011;34289;48.572;13.378;2022-07-29T08:21:22;8.80;;;6.10;;
48487;SDS011;34289;48.572;13.378;2022-07-29T08:23:48;9.48;;;5.57;;
48487;SDS011;34289;48.572;13.378;2022-07-29T08:26:17;8.45;;;7.30;;
48487;SDS011;34289;48.572;13.378;2022-07-29T08:28:44;9.05;;;7.03;;
48487;SDS011;34289;48.572;13.378;2022-07-29T08:31:11;5.43;;;4.93;;
48487;SDS011;34289;48.572;13.378;2022-07-29T08:33:37;6.15;;;5.10;;
48487;SDS011;34289;48.572;13.378;2022-07-29T08:36:03;6.43;;;5.22;;
48487;SDS011;34289;48.572;13.378;2022-07-29T08:38:29;8.40;;;5.40;;
48487;SDS011;34289;48.572;13.378;2022-07-29T08:40:55;8.48;;;5.20;;
48487;SDS011;34289;48.572;13.378;2022-07-29T08:43:21;8.63;;;6.55;;
48487;SDS011;34289;48.572;13.378;2022-07-29T08:45:48;6.70;;;5.03;;
48487;SDS011;34289;48.572;13.378;2022-07-29T08:48:16;7.95;;;5.47;;
48487;SDS011;34289;48.572;13.378;2022-07-29T08:50:42;6.65;;;4.65;;
48487;SDS011;34289;48.572;13.378;2022-07-29T08:53:13;5.45;;;3.55;;
48487;SDS011;34289;48.572;13.378;2022-07-29T08:55:40;8.85;;;6.70;;
48487;SDS011;34289;48.572;13.378;2022-07-29T08:58:08;4.18;;;3.42;;
48487;SDS011;34289;48.572;13.378;2022-07-29T09:00:35;7.47;;;4.63;;
48487;SDS011;34289;48.572;13.378;2022-07-29T09:03:02;5.68;;;3.78;;
48487;SDS011;34289;48.572;13.378;2022-07-29T09:05:33;11.25;;;4.22;;
48487;SDS011;34289;48.572;13.378;2022-07-29T09:07:59;8.40;;;4.53;;
48487;SDS011;34289;48.572;13.378;2022-07-29T09:10:26;6.60;;;3.55;;
48487;SDS011;34289;48.572;13.378;2022-07-29T09:12:54;6.05;;;3.60;;
48487;SDS011;34289;48.572;13.378;2022-07-29T09:15:20;6.47;;;3.75;;
48487;SDS011;34289;48.572;13.378;2022-07-29T09:17:47;4.88;;;3.63;;
48487;SDS011;34289;48.572;13.378;2022-07-29T09:20:15;6.85;;;4.10;;
48487;SDS011;34289;48.572;13.378;2022-07-29T09:22:41;9.02;;;4.38;;
48487;SDS011;34289;48.572;13.378;2022-07-29T09:25:08;7.93;;;4.00;;
48487;SDS011;34289;48.572;13.378;2022-07-29T09:27:34;6.63;;;3.47;;
48487;SDS011;34289;48.572;13.378;2022-07-29T09:30:02;5.28;;;4.10;;
48487;SDS011;34289;48.572;13.378;2022-07-29T09:32:29;3.75;;;3.38;;
48487;SDS011;34289;48.572;13.378;2022-07-29T09:37:40;3.38;;;2.90;;
48487;SDS011;34289;48.572;13.378;2022-07-29T09:40:14;4.32;;;2.60;;
48487;SDS011;34289;48.572;13.378;2022-07-29T09:42:41;4.13;;;2.60;;
48487;SDS011;34289;48.572;13.378;2022-07-29T09:45:07;4.82;;;3.05;;
48487;SDS011;34289;48.572;13.378;2022-07-29T09:47:40;3.72;;;3.17;;
48487;SDS011;34289;48.572;13.378;2022-07-29T09:50:09;5.93;;;3.72;;
48487;SDS011;34289;48.572;13.378;2022-07-29T09:52:44;7.68;;;3.47;;
48487;SDS011;34289;48.572;13.378;2022-07-29T09:55:12;5.25;;;2.78;;
48487;SDS011;34289;48.572;13.378;2022-07-29T09:57:38;2.97;;;2.78;;
48487;SDS011;34289;48.572;13.378;2022-07-29T10:00:06;4.00;;;2.88;;
48487;SDS011;34289;48.572;13.378;2022-07-29T10:02:34;4.32;;;3.20;;
48487;SDS011;34289;48.572;13.378;2022-07-29T10:05:02;5.72;;;3.08;;
48487;SDS011;34289;48.572;13.378;2022-07-29T10:07:43;3.13;;;2.83;;
48487;SDS011;34289;48.572;13.378;2022-07-29T10:10:08;14.07;;;4.35;;
48487;SDS011;34289;48.572;13.378;2022-07-29T10:12:34;4.80;;;2.70;;
48487;SDS011;34289;48.572;13.378;2022-07-29T10:15:14;2.92;;;2.63;;
48487;SDS011;34289;48.572;13.378;2022-07-29T10:17:40;3.50;;;2.95;;
48487;SDS011;34289;48.572;13.378;2022-07-29T10:20:07;2.85;;;2.40;;
48487;SDS011;34289;48.572;13.378;2022-07-29T10:22:33;3.65;;;2.95;;
48487;SDS011;34289;48.572;13.378;2022-07-29T10:24:59;6.97;;;2.88;;
48487;SDS011;34289;48.572;13.378;2022-07-29T10:27:25;3.25;;;2.70;;
48487;SDS011;34289;48.572;13.378;2022-07-29T10:29:51;3.90;;;3.08;;
48487;SDS011;34289;48.572;13.378;2022-07-29T10:38:02;3.28;;;2.75;;
48487;SDS011;34289;48.572;13.378;2022-07-29T10:43:41;3.00;;;2.70;;
48487;SDS011;34289;48.572;13.378;2022-07-29T10:46:09;3.28;;;2.83;;
48487;SDS011;34289;48.572;13.378;2022-07-29T10:49:03;3.08;;;2.70;;
48487;SDS011;34289;48.572;13.378;2022-07-29T10:54:17;10.05;;;3.25;;
48487;SDS011;34289;48.572;13.378;2022-07-29T10:56:44;4.28;;;2.70;;
48487;SDS011;34289;48.572;13.378;2022-07-29T11:01:42;4.90;;;3.10;;
48487;SDS011;34289;48.572;13.378;2022-07-29T11:04:08;3.10;;;2.70;;
48487;SDS011;34289;48.572;13.378;2022-07-29T11:09:19;2.65;;;2.45;;
48487;SDS011;34289;48.572;13.378;2022-07-29T11:11:45;3.17;;;2.78;;
48487;SDS011;34289;48.572;13.378;2022-07-29T11:14:11;3.08;;;2.75;;
48487;SDS011;34289;48.572;13.378;2022-07-29T11:19:27;7.82;;;2.88;;
48487;SDS011;34289;48.572;13.378;2022-07-29T11:21:53;4.30;;;2.65;;
48487;SDS011;34289;48.572;13.378;2022-07-29T11:24:21;4.38;;;2.40;;
48487;SDS011;34289;48.572;13.378;2022-07-29T11:27:05;2.90;;;2.60;;
48487;SDS011;34289;48.572;13.378;2022-07-29T11:29:32;2.88;;;2.65;;
48487;SDS011;34289;48.572;13.378;2022-07-29T11:32:09;3.00;;;2.80;;
48487;SDS011;34289;48.572;13.378;2022-07-29T11:34:37;2.90;;;2.60;;
48487;SDS011;34289;48.572;13.378;2022-07-29T11:39:35;4.22;;;2.67;;
48487;SDS011;34289;48.572;13.378;2022-07-29T11:44:56;3.58;;;2.90;;
48487;SDS011;34289;48.572;13.378;2022-07-29T11:47:24;7.57;;;2.97;;
48487;SDS011;34289;48.572;13.378;2022-07-29T11:49:51;6.57;;;2.75;;
48487;SDS011;34289;48.572;13.378;2022-07-29T11:52:18;4.82;;;3.10;;
48487;SDS011;34289;48.572;13.378;2022-07-29T11:54:44;4.80;;;2.75;;
48487;SDS011;34289;48.572;13.378;2022-07-29T11:57:13;3.00;;;2.70;;
48487;SDS011;34289;48.572;13.378;2022-07-29T11:59:41;3.08;;;2.78;;
48487;SDS011;34289;48.572;13.378;2022-07-29T12:02:09;8.13;;;3.47;;
48487;SDS011;34289;48.572;13.378;2022-07-29T12:04:51;3.55;;;2.88;;
48487;SDS011;34289;48.572;13.378;2022-07-29T12:07:18;4.00;;;2.90;;
48487;SDS011;34289;48.572;13.378;2022-07-29T12:09:51;2.97;;;2.67;;
48487;SDS011;34289;48.572;13.378;2022-07-29T12:12:17;3.80;;;3.00;;
48487;SDS011;34289;48.572;13.378;2022-07-29T12:14:43;4.00;;;2.65;;
48487;SDS011;34289;48.572;13.378;2022-07-29T12:17:28;2.65;;;2.45;;
48487;SDS011;34289;48.572;13.378;2022-07-29T12:19:55;4.32;;;2.50;;
48487;SDS011;34289;48.572;13.378;2022-07-29T12:22:25;4.57;;;2.70;;
48487;SDS011;34289;48.572;13.378;2022-07-29T12:24:52;5.45;;;3.08;;
48487;SDS011;34289;48.572;13.378;2022-07-29T12:27:18;6.53;;;4.50;;
48487;SDS011;34289;48.572;13.378;2022-07-29T12:29:45;6.50;;;3.58;;
48487;SDS011;34289;48.572;13.378;2022-07-29T12:32:11;7.95;;;3.75;;
48487;SDS011;34289;48.572;13.378;2022-07-29T12:34:37;6.97;;;5.82;;
48487;SDS011;34289;48.572;13.378;2022-07-29T12:37:03;3.92;;;3.28;;
48487;SDS011;34289;48.572;13.378;2022-07-29T12:39:29;4.00;;;2.60;;
48487;SDS011;34289;48.572;13.378;2022-07-29T12:41:56;2.60;;;2.40;;
48487;SDS011;34289;48.572;13.378;2022-07-29T12:44:22;3.08;;;2.60;;
48487;SDS011;34289;48.572;13.378;2022-07-29T12:47:02;4.47;;;2.58;;
48487;SDS011;34289;48.572;13.378;2022-07-29T12:49:28;7.07;;;3.70;;
48487;SDS011;34289;48.572;13.378;2022-07-29T12:51:54;4.63;;;3.65;;
48487;SDS011;34289;48.572;13.378;2022-07-29T12:54:20;4.63;;;2.88;;
48487;SDS011;34289;48.572;13.378;2022-07-29T12:56:57;2.75;;;2.50;;
48487;SDS011;34289;48.572;13.378;2022-07-29T12:59:23;2.35;;;2.15;;
48487;SDS011;34289;48.572;13.378;2022-07-29T13:01:50;3.90;;;3.47;;
48487;SDS011;34289;48.572;13.378;2022-07-29T13:04:26;4.32;;;3.40;;
48487;SDS011;34289;48.572;13.378;2022-07-29T13:07:01;3.88;;;2.50;;
48487;SDS011;34289;48.572;13.378;2022-07-29T13:09:42;4.65;;;4.13;;
48487;SDS011;34289;48.572;13.378;2022-07-29T13:12:09;3.53;;;3.22;;
48487;SDS011;34289;48.572;13.378;2022-07-29T13:14:37;2.50;;;2.25;;
48487;SDS011;34289;48.572;13.378;2022-07-29T13:17:07;4.07;;;2.27;;
48487;SDS011;34289;48.572;13.378;2022-07-29T13:22:05;3.95;;;3.38;;
48487;SDS011;34289;48.572;13.378;2022-07-29T13:24:31;3.83;;;2.70;;
48487;SDS011;34289;48.572;13.378;2022-07-29T13:26:57;3.38;;;2.38;;
48487;SDS011;34289;48.572;13.378;2022-07-29T13:29:23;2.95;;;2.50;;
48487;SDS011;34289;48.572;13.378;2022-07-29T13:31:51;4.05;;;2.50;;
48487;SDS011;34289;48.572;13.378;2022-07-29T13:34:17;5.00;;;2.63;;
48487;SDS011;34289;48.572;13.378;2022-07-29T13:36:46;4.78;;;2.53;;
48487;SDS011;34289;48.572;13.378;2022-07-29T13:39:12;3.53;;;2.47;;
48487;SDS011;34289;48.572;13.378;2022-07-29T13:41:38;2.65;;;2.40;;
48487;SDS011;34289;48.572;13.378;2022-07-29T13:44:04;4.95;;;2.70;;
48487;SDS011;34289;48.572;13.378;2022-07-29T13:46:30;3.47;;;2.35;;
48487;SDS011;34289;48.572;13.378;2022-07-29T13:48:56;2.95;;;2.70;;
48487;SDS011;34289;48.572;13.378;2022-07-29T13:51:22;5.82;;;2.70;;
48487;SDS011;34289;48.572;13.378;2022-07-29T13:53:48;2.90;;;2.53;;
48487;SDS011;34289;48.572;13.378;2022-07-29T13:56:16;2.90;;;2.58;;
48487;SDS011;34289;48.572;13.378;2022-07-29T13:58:42;2.25;;;2.15;;
48487;SDS011;34289;48.572;13.378;2022-07-29T14:01:08;3.28;;;2.13;;
48487;SDS011;34289;48.572;13.378;2022-07-29T14:03:34;2.80;;;2.53;;
48487;SDS011;34289;48.572;13.378;2022-07-29T14:06:02;5.22;;;2.83;;
48487;SDS011;34289;48.572;13.378;2022-07-29T14:08:28;2.80;;;2.60;;
48487;SDS011;34289;48.572;13.378;2022-07-29T14:10:54;2.60;;;2.33;;
48487;SDS011;34289;48.572;13.378;2022-07-29T14:13:20;2.42;;;2.15;;
48487;SDS011;34289;48.572;13.378;2022-07-29T14:15:46;2.78;;;2.58;;
48487;SDS011;34289;48.572;13.378;2022-07-29T14:18:13;7.18;;;2.50;;
48487;SDS011;34289;48.572;13.378;2022-07-29T14:20:39;2.85;;;2.33;;
48487;SDS011;34289;48.572;13.378;2022-07-29T14:23:05;2.75;;;2.20;;
48487;SDS011;34289;48.572;13.378;2022-07-29T14:25:31;6.40;;;2.50;;
48487;SDS011;34289;48.572;13.378;2022-07-29T14:27:57;5.85;;;2.42;;
48487;SDS011;34289;48.572;13.378;2022-07-29T14:30:23;2.60;;;2.40;;
48487;SDS011;34289;48.572;13.378;2022-07-29T14:32:49;4.07;;;3.05;;
48487;SDS011;34289;48.572;13.378;2022-07-29T14:35:15;3.45;;;2.53;;
48487;SDS011;34289;48.572;13.378;2022-07-29T14:37:41;3.58;;;2.42;;
48487;SDS011;34289;48.572;13.378;2022-07-29T14:40:07;2.70;;;2.50;;
48487;SDS011;34289;48.572;13.378;2022-07-29T14:42:34;7.30;;;2.78;;
48487;SDS011;34289;48.572;13.378;2022-07-29T14:45:01;3.15;;;1.98;;
48487;SDS011;34289;48.572;13.378;2022-07-29T14:47:27;3.00;;;2.70;;
48487;SDS011;34289;48.572;13.378;2022-07-29T14:49:53;4.50;;;2.50;;
48487;SDS011;34289;48.572;13.378;2022-07-29T14:52:19;2.40;;;2.20;;
48487;SDS011;34289;48.572;13.378;2022-07-29T14:54:45;4.00;;;2.50;;
48487;SDS011;34289;48.572;13.378;2022-07-29T14:57:11;2.88;;;2.15;;
48487;SDS011;34289;48.572;13.378;2022-07-29T14:59:37;2.60;;;2.40;;
48487;SDS011;34289;48.572;13.378;2022-07-29T15:02:03;2.40;;;2.20;;
48487;SDS011;34289;48.572;13.378;2022-07-29T15:04:30;5.90;;;2.70;;
48487;SDS011;34289;48.572;13.378;2022-07-29T15:06:56;3.47;;;2.42;;
48487;SDS011;34289;48.572;13.378;2022-07-29T15:09:22;3.15;;;2.80;;